createdAt,value
2023-04-22T00:02:32.741Z,10.25
2023-04-22T00:05:16.430Z,10.21
2023-04-22T00:08:01.243Z,10.19
2023-04-22T00:10:40.530Z,10.14
2023-04-22T00:13:19.421Z,10.08
2023-04-22T00:15:58.144Z,10.04
2023-04-22T00:18:38.419Z,10.01
2023-04-22T00:21:18.469Z,9.96
2023-04-22T00:23:57.304Z,9.93
2023-04-22T00:26:36.318Z,9.90
2023-04-22T00:29:14.691Z,9.89
2023-04-22T00:31:53.064Z,9.88
2023-04-22T00:34:24.127Z,9.86
2023-04-22T00:36:56.144Z,9.82
2023-04-22T00:39:33.418Z,9.79
2023-04-22T00:42:13.007Z,9.75
2023-04-22T00:44:53.153Z,9.72
2023-04-22T00:47:32.628Z,9.70
2023-04-22T00:50:13.660Z,9.60
2023-04-22T00:52:52.329Z,9.62
2023-04-22T00:55:30.985Z,9.58
2023-04-22T00:58:11.932Z,9.54
2023-04-22T01:00:50.461Z,9.51
2023-04-22T01:03:35.757Z,9.48
2023-04-22T01:06:14.045Z,9.44
2023-04-22T01:08:53.719Z,9.43
2023-04-22T01:11:32.481Z,9.39
2023-04-22T01:14:12.411Z,9.36
2023-04-22T01:16:51.874Z,9.32
2023-04-22T01:19:31.186Z,9.29
2023-04-22T01:22:13.055Z,9.25
2023-04-22T01:24:53.003Z,9.23
2023-04-22T01:27:32.438Z,9.21
2023-04-22T01:30:09.937Z,9.18
2023-04-22T01:32:45.477Z,9.13
2023-04-22T01:35:24.802Z,9.11
2023-04-22T01:38:03.313Z,9.08
2023-04-22T01:40:41.693Z,9.04
2023-04-22T01:43:19.744Z,9.00
2023-04-22T01:45:58.191Z,8.95
2023-04-22T01:48:37.768Z,8.92
2023-04-22T01:51:16.439Z,8.88
2023-04-22T01:53:55.642Z,8.86
2023-04-22T01:56:34.366Z,8.83
2023-04-22T01:59:13.796Z,8.81
2023-04-22T02:01:53.025Z,8.78
2023-04-22T02:04:32.052Z,8.73
2023-04-22T02:07:13.088Z,8.72
2023-04-22T02:09:51.527Z,8.70
2023-04-22T02:12:30.398Z,8.68
2023-04-22T02:15:11.056Z,8.65
2023-04-22T02:17:49.687Z,8.59
2023-04-22T02:20:22.242Z,8.55
2023-04-22T02:22:57.370Z,8.52
2023-04-22T02:25:36.115Z,8.52
2023-04-22T02:28:10.247Z,8.51
2023-04-22T02:30:49.771Z,8.49
2023-04-22T02:33:28.445Z,8.49
2023-04-22T02:36:07.917Z,8.48
2023-04-22T02:38:48.333Z,8.46
2023-04-22T02:41:27.293Z,8.45
2023-04-22T02:44:06.843Z,8.41
2023-04-22T02:46:45.538Z,8.40
2023-04-22T02:49:24.933Z,8.35
2023-04-22T02:52:03.497Z,8.31
2023-04-22T02:54:41.952Z,8.28
2023-04-22T02:57:21.570Z,8.25
2023-04-22T03:00:00.667Z,8.21
2023-04-22T03:02:39.424Z,8.21
2023-04-22T03:05:18.980Z,8.19
2023-04-22T03:07:58.158Z,8.17
2023-04-22T03:10:37.267Z,8.15
2023-04-22T03:13:17.999Z,8.13
2023-04-22T03:15:57.088Z,8.12
2023-04-22T03:18:35.745Z,8.10
2023-04-22T03:21:15.428Z,8.06
2023-04-22T03:23:54.547Z,8.05
2023-04-22T03:26:33.437Z,8.04
2023-04-22T03:29:13.334Z,8.01
2023-04-22T03:31:51.560Z,8.01
2023-04-22T03:34:22.851Z,8.00
2023-04-22T03:36:59.140Z,8.01
2023-04-22T03:39:38.819Z,8.02
2023-04-22T03:42:18.606Z,8.02
2023-04-22T03:44:58.083Z,8.02
2023-04-22T03:47:38.133Z,8.02
2023-04-22T03:50:18.041Z,8.03
2023-04-22T03:52:57.649Z,8.04
2023-04-22T03:55:36.743Z,8.04
2023-04-22T03:58:17.391Z,7.98
2023-04-22T04:00:56.432Z,8.07
2023-04-22T04:03:36.221Z,8.07
2023-04-22T04:06:16.158Z,8.09
2023-04-22T04:08:55.661Z,8.13
2023-04-22T04:11:34.763Z,8.14
2023-04-22T04:14:14.618Z,8.15
2023-04-22T04:16:54.690Z,8.15
2023-04-22T04:19:26.205Z,8.21
2023-04-22T04:22:07.100Z,8.27
2023-04-22T04:24:46.173Z,8.33
2023-04-22T04:27:25.588Z,8.40
2023-04-22T04:30:04.356Z,8.42
2023-04-22T04:32:46.096Z,8.44
2023-04-22T04:35:25.391Z,8.47
2023-04-22T04:38:05.622Z,8.52
2023-04-22T04:40:45.965Z,8.47
2023-04-22T04:43:26.278Z,8.58
2023-04-22T04:46:06.779Z,8.61
2023-04-22T04:48:46.847Z,8.67
2023-04-22T04:51:27.025Z,8.66
2023-04-22T04:53:57.349Z,8.71
2023-04-22T04:56:37.640Z,8.77
2023-04-22T04:59:16.515Z,8.81
2023-04-22T05:01:56.588Z,8.83
2023-04-22T05:04:36.071Z,8.97
2023-04-22T05:07:07.136Z,9.06
2023-04-22T05:09:42.489Z,9.11
2023-04-22T05:12:21.714Z,9.13
2023-04-22T05:15:01.566Z,9.20
2023-04-22T05:17:41.281Z,9.38
2023-04-22T05:20:18.882Z,9.51
2023-04-22T05:22:58.964Z,9.68
2023-04-22T05:25:39.148Z,9.86
2023-04-22T05:28:18.387Z,10.06
2023-04-22T05:30:57.794Z,10.65
2023-04-22T05:33:36.960Z,11.43
2023-04-22T05:36:16.618Z,12.12
2023-04-22T05:38:56.462Z,13.06
2023-04-22T05:41:28.485Z,13.50
2023-04-22T05:44:10.011Z,14.36
2023-04-22T05:46:49.547Z,14.85
2023-04-22T05:49:29.207Z,14.86
2023-04-22T05:52:10.825Z,15.42
2023-04-22T05:54:50.217Z,15.31
2023-04-22T05:57:29.141Z,15.59
2023-04-22T06:00:09.517Z,16.68
2023-04-22T06:02:47.066Z,16.84
2023-04-22T06:05:26.265Z,16.94
2023-04-22T06:08:06.067Z,17.60
2023-04-22T06:10:46.612Z,18.54
2023-04-22T06:13:27.925Z,19.16
2023-04-22T06:18:55.511Z,19.38
2023-04-22T06:21:40.179Z,20.14
2023-04-22T06:24:19.927Z,20.78
2023-04-22T06:26:59.069Z,20.81
2023-04-22T06:29:38.653Z,20.78
2023-04-22T06:32:18.633Z,20.99
2023-04-22T06:34:54.591Z,21.23
2023-04-22T06:37:34.620Z,21.34
2023-04-22T06:40:16.603Z,21.39
2023-04-22T06:42:55.966Z,21.42
2023-04-22T06:45:35.610Z,21.06
2023-04-22T06:48:16.677Z,21.07
2023-04-22T06:50:57.277Z,21.02
2023-04-22T06:53:36.954Z,20.77
2023-04-22T06:56:16.693Z,20.09
2023-04-22T06:58:55.776Z,19.88
2023-04-22T07:01:35.742Z,19.90
2023-04-22T07:04:15.744Z,20.22
2023-04-22T07:06:54.808Z,20.64
2023-04-22T07:09:34.494Z,20.64
2023-04-22T07:12:14.153Z,20.41
2023-04-22T07:14:53.639Z,20.35
2023-04-22T07:17:32.539Z,20.77
2023-04-22T07:20:13.224Z,21.00
2023-04-22T07:22:52.106Z,20.97
2023-04-22T07:25:31.815Z,21.29
2023-04-22T07:28:09.651Z,21.46
2023-04-22T07:30:49.765Z,21.86
2023-04-22T07:33:31.330Z,22.09
2023-04-22T07:36:12.028Z,22.54
2023-04-22T07:38:51.012Z,22.77
2023-04-22T07:41:30.572Z,23.16
2023-04-22T07:44:17.895Z,23.00
2023-04-22T07:46:57.947Z,22.99
2023-04-22T07:49:37.597Z,23.09
2023-04-22T07:52:08.611Z,23.02
2023-04-22T07:54:49.899Z,23.34
2023-04-22T07:57:29.334Z,23.24
2023-04-22T08:00:11.928Z,23.45
2023-04-22T08:02:51.798Z,23.33
2023-04-22T08:05:31.183Z,23.18
2023-04-22T08:08:11.503Z,23.15
2023-04-22T08:10:52.948Z,23.65
2023-04-22T08:13:33.233Z,24.06
2023-04-22T08:16:14.111Z,24.03
2023-04-22T08:18:53.983Z,24.10
2023-04-22T08:21:33.306Z,24.02
2023-04-22T08:24:10.797Z,24.58
2023-04-22T08:26:49.379Z,24.90
2023-04-22T08:29:31.238Z,25.10
2023-04-22T08:32:11.449Z,25.26
2023-04-22T08:35:01.397Z,25.39
2023-04-22T08:37:47.093Z,25.52
2023-04-22T08:40:26.868Z,25.72
2023-04-22T08:43:06.242Z,25.62
2023-04-22T08:45:47.075Z,25.18
2023-04-22T08:48:27.270Z,25.08
2023-04-22T08:51:03.387Z,25.02
2023-04-22T08:53:42.386Z,25.07
2023-04-22T08:56:22.546Z,24.37
2023-04-22T08:59:01.459Z,24.29
2023-04-22T09:01:44.335Z,24.00
2023-04-22T09:04:24.666Z,24.25
2023-04-22T09:07:02.042Z,24.64
2023-04-22T09:09:40.948Z,25.21
2023-04-22T09:12:20.181Z,25.10
2023-04-22T09:14:59.300Z,24.85
2023-04-22T09:17:39.837Z,25.00
2023-04-22T09:20:20.450Z,24.52
2023-04-22T09:22:59.721Z,24.78
2023-04-22T09:25:40.019Z,24.99
2023-04-22T09:28:22.673Z,24.68
2023-04-22T09:31:06.097Z,24.39
2023-04-22T09:33:50.322Z,24.39
2023-04-22T09:36:34.359Z,24.71
2023-04-22T09:39:10.551Z,24.98
2023-04-22T09:41:56.938Z,24.92
2023-04-22T09:44:31.044Z,24.96
2023-04-22T09:47:12.499Z,24.92
2023-04-22T09:49:51.121Z,24.92
2023-04-22T09:52:34.340Z,24.89
2023-04-22T09:55:11.330Z,24.75
2023-04-22T09:57:52.578Z,24.78
2023-04-22T10:00:32.492Z,24.35
2023-04-22T10:03:11.244Z,24.48
2023-04-22T10:05:50.152Z,24.28
2023-04-22T10:08:29.734Z,24.11
2023-04-22T10:11:10.146Z,23.70
2023-04-22T10:13:49.770Z,23.53
2023-04-22T10:16:32.412Z,23.50
2023-04-22T10:19:14.373Z,23.00
2023-04-22T10:22:04.718Z,23.25
2023-04-22T10:24:45.524Z,23.77
2023-04-22T10:27:26.369Z,24.17
2023-04-22T10:30:05.691Z,24.55
2023-04-22T10:32:45.034Z,24.50
2023-04-22T10:35:31.145Z,24.53
2023-04-22T10:38:12.731Z,24.71
2023-04-22T10:41:05.277Z,24.78
2023-04-22T10:43:59.386Z,24.76
2023-04-22T10:46:45.016Z,24.66
2023-04-22T10:49:24.464Z,24.38
2023-04-22T10:52:05.852Z,24.16
2023-04-22T10:54:49.922Z,24.08
2023-04-22T10:57:40.513Z,24.18
2023-04-22T11:00:45.833Z,24.34
2023-04-22T11:03:39.484Z,24.41
2023-04-22T11:06:28.718Z,24.40
2023-04-22T11:09:14.436Z,24.10
2023-04-22T11:11:53.707Z,23.93
2023-04-22T11:14:33.119Z,23.72
2023-04-22T11:17:13.691Z,23.67
2023-04-22T11:19:58.272Z,23.84
2023-04-22T11:22:49.660Z,23.68
2023-04-22T11:25:30.223Z,23.63
2023-04-22T11:28:09.581Z,23.56
2023-04-22T11:30:48.965Z,23.54
2023-04-22T11:33:28.403Z,23.46
2023-04-22T11:36:12.531Z,22.89
2023-04-22T11:39:09.141Z,22.65
2023-04-22T11:41:49.214Z,22.63
2023-04-22T11:44:30.915Z,22.61
2023-04-22T11:47:13.981Z,22.26
2023-04-22T11:50:10.150Z,21.92
2023-04-22T11:53:15.042Z,22.27
2023-04-22T11:55:54.462Z,22.41
2023-04-22T11:58:34.020Z,22.67
2023-04-22T12:01:14.966Z,22.92
2023-04-22T12:04:04.883Z,22.96
2023-04-22T12:06:37.148Z,22.84
2023-04-22T12:09:16.011Z,22.85
2023-04-22T12:11:54.633Z,22.60
2023-04-22T12:14:36.696Z,22.51
2023-04-22T12:17:17.047Z,22.21
2023-04-22T12:19:56.321Z,21.75
2023-04-22T12:22:34.831Z,21.53
2023-04-22T12:25:20.455Z,21.59
2023-04-22T12:27:57.661Z,21.75
2023-04-22T12:30:35.669Z,21.67
2023-04-22T12:33:08.170Z,21.79
2023-04-22T12:35:49.359Z,22.05
2023-04-22T12:38:29.432Z,22.32
2023-04-22T12:41:10.890Z,22.46
2023-04-22T12:43:53.076Z,22.57
2023-04-22T12:46:27.310Z,22.69
2023-04-22T12:49:07.228Z,22.80
2023-04-22T12:51:47.375Z,22.52
2023-04-22T12:54:29.264Z,22.29
2023-04-22T12:57:15.990Z,22.20
2023-04-22T12:59:59.300Z,22.36
2023-04-22T13:02:38.102Z,22.53
2023-04-22T13:05:18.519Z,22.71
2023-04-22T13:08:06.410Z,22.67
2023-04-22T13:10:50.403Z,22.72
2023-04-22T13:13:30.760Z,22.87
2023-04-22T13:16:13.833Z,23.18
2023-04-22T13:18:53.773Z,23.35
2023-04-22T13:21:33.505Z,23.27
2023-04-22T13:24:06.346Z,22.61
2023-04-22T13:26:39.635Z,22.77
2023-04-22T13:29:17.332Z,23.12
2023-04-22T13:31:57.262Z,22.97
2023-04-22T13:34:36.886Z,23.00
2023-04-22T13:37:22.113Z,23.16
2023-04-22T13:39:57.751Z,23.16
2023-04-22T13:42:37.522Z,23.15
2023-04-22T13:45:17.634Z,23.17
2023-04-22T13:47:57.741Z,23.28
2023-04-22T13:50:37.686Z,23.15
2023-04-22T13:53:17.725Z,23.10
2023-04-22T13:55:57.434Z,23.28
2023-04-22T13:58:37.480Z,23.38
2023-04-22T14:01:18.490Z,23.29
2023-04-22T14:03:58.895Z,23.14
2023-04-22T14:06:38.634Z,23.28
2023-04-22T14:09:18.416Z,23.08
2023-04-22T14:11:58.885Z,23.02
2023-04-22T14:14:38.383Z,23.19
2023-04-22T14:17:20.112Z,23.04
2023-04-22T14:19:58.658Z,22.91
2023-04-22T14:22:34.463Z,22.96
2023-04-22T14:25:15.670Z,22.94
2023-04-22T14:27:56.102Z,22.72
2023-04-22T14:30:35.940Z,22.54
2023-04-22T14:33:18.117Z,22.54
2023-04-22T14:35:58.065Z,22.65
2023-04-22T14:38:38.575Z,22.79
2023-04-22T14:41:19.272Z,22.86
2023-04-22T14:43:58.253Z,22.71
2023-04-22T14:46:39.244Z,22.76
2023-04-22T14:49:19.211Z,22.71
2023-04-22T14:52:03.047Z,22.60
2023-04-22T14:54:39.819Z,22.62
2023-04-22T14:57:19.680Z,22.70
2023-04-22T14:59:59.794Z,22.80
2023-04-22T15:02:39.989Z,22.70
2023-04-22T15:05:17.552Z,22.62
2023-04-22T15:08:00.251Z,22.51
2023-04-22T15:10:39.842Z,22.40
2023-04-22T15:13:20.242Z,22.22
2023-04-22T15:16:00.144Z,22.10
2023-04-22T15:18:40.990Z,22.08
2023-04-22T15:21:20.605Z,22.02
2023-04-22T15:24:00.401Z,21.95
2023-04-22T15:26:40.944Z,21.98
2023-04-22T15:29:20.503Z,21.96
2023-04-22T15:32:00.348Z,21.92
2023-04-22T15:34:39.889Z,21.95
2023-04-22T15:37:20.692Z,21.94
2023-04-22T15:40:00.173Z,21.92
2023-04-22T15:42:39.930Z,21.96
2023-04-22T15:45:20.270Z,22.01
2023-04-22T15:48:00.759Z,21.92
2023-04-22T15:50:40.099Z,21.94
2023-04-22T15:53:20.010Z,21.95
2023-04-22T15:55:59.977Z,21.97
2023-04-22T15:58:40.754Z,21.95
2023-04-22T16:01:21.338Z,21.92
2023-04-22T16:03:59.276Z,21.95
2023-04-22T16:06:39.503Z,21.99
2023-04-22T16:09:20.114Z,21.91
2023-04-22T16:12:00.568Z,21.96
2023-04-22T16:14:40.861Z,21.94
2023-04-22T16:17:21.380Z,21.88
2023-04-22T16:20:01.986Z,21.80
2023-04-22T16:22:38.897Z,21.58
2023-04-22T16:25:19.614Z,21.41
2023-04-22T16:27:59.626Z,21.31
2023-04-22T16:30:40.680Z,21.25
2023-04-22T16:33:20.823Z,21.20
2023-04-22T16:36:00.798Z,21.18
2023-04-22T16:38:40.403Z,21.06
2023-04-22T16:41:21.367Z,20.98
2023-04-22T16:44:01.357Z,20.96
2023-04-22T16:46:32.821Z,20.80
2023-04-22T16:49:14.048Z,20.68
2023-04-22T16:51:54.176Z,20.62
2023-04-22T16:54:34.276Z,20.56
2023-04-22T16:57:15.196Z,20.49
2023-04-22T16:59:54.551Z,20.45
2023-04-22T17:02:34.667Z,20.41
2023-04-22T17:05:15.158Z,20.33
2023-04-22T17:07:48.618Z,20.21
2023-04-22T17:10:21.861Z,20.15
2023-04-22T17:13:01.144Z,20.11
2023-04-22T17:15:40.224Z,20.05
2023-04-22T17:18:11.336Z,19.91
2023-04-22T17:20:45.199Z,19.90
2023-04-22T17:23:24.208Z,19.84
2023-04-22T17:26:03.784Z,19.77
2023-04-22T17:28:44.629Z,19.69
2023-04-22T17:31:25.488Z,19.62
2023-04-22T17:34:04.669Z,19.54
2023-04-22T17:36:44.604Z,19.45
2023-04-22T17:39:24.363Z,19.35
2023-04-22T17:42:04.680Z,19.25
2023-04-22T17:44:44.986Z,19.13
2023-04-22T17:47:24.733Z,18.99
2023-04-22T17:50:03.994Z,18.87
2023-04-22T17:52:44.081Z,18.71
2023-04-22T17:55:23.286Z,18.58
2023-04-22T17:58:02.893Z,18.48
2023-04-22T18:00:42.597Z,18.37
2023-04-22T18:03:21.688Z,18.27
2023-04-22T18:05:56.872Z,18.18
2023-04-22T18:08:37.415Z,18.06
2023-04-22T18:11:17.505Z,17.96
2023-04-22T18:13:56.973Z,17.87
2023-04-22T18:16:37.154Z,17.77
2023-04-22T18:19:16.815Z,17.67
2023-04-22T18:21:59.959Z,17.56
2023-04-22T18:24:42.498Z,17.49
2023-04-22T18:27:21.676Z,17.42
2023-04-22T18:30:03.109Z,17.35
2023-04-22T18:32:43.200Z,17.28
2023-04-22T18:35:23.821Z,17.21
2023-04-22T18:38:04.364Z,17.14
2023-04-22T18:40:44.766Z,17.08
2023-04-22T18:43:26.446Z,17.01
2023-04-22T18:46:07.265Z,16.94
2023-04-22T18:48:47.654Z,16.87
2023-04-22T18:51:28.244Z,16.82
2023-04-22T18:54:08.305Z,16.74
2023-04-22T18:56:47.976Z,16.69
2023-04-22T18:59:28.261Z,16.69
2023-04-22T19:02:07.872Z,16.66
2023-04-22T19:04:47.601Z,16.63
2023-04-22T19:07:27.635Z,16.57
2023-04-22T19:10:08.046Z,16.51
2023-04-22T19:12:47.787Z,16.44
2023-04-22T19:15:27.981Z,16.38
2023-04-22T19:18:08.083Z,16.31
2023-04-22T19:20:48.004Z,16.18
2023-04-22T19:23:28.297Z,16.10
2023-04-22T19:26:09.961Z,16.02
2023-04-22T19:28:49.366Z,15.94
2023-04-22T19:31:28.852Z,15.80
2023-04-22T19:34:09.146Z,15.74
2023-04-22T19:36:50.451Z,15.67
2023-04-22T19:39:29.257Z,15.63
2023-04-22T19:42:08.846Z,15.60
2023-04-22T19:44:48.913Z,15.56
2023-04-22T19:47:28.891Z,15.52
2023-04-22T19:50:10.480Z,15.48
2023-04-22T19:52:50.374Z,15.45
2023-04-22T19:55:29.571Z,15.42
2023-04-22T19:58:09.162Z,15.40
2023-04-22T20:00:49.712Z,15.38
2023-04-22T20:03:29.354Z,15.34
2023-04-22T20:06:09.536Z,15.31
2023-04-22T20:08:52.354Z,15.26
2023-04-22T20:11:30.054Z,15.21
2023-04-22T20:14:10.320Z,15.14
2023-04-22T20:16:50.245Z,15.08
2023-04-22T20:19:30.871Z,15.03
2023-04-22T20:22:12.485Z,14.98
2023-04-22T20:25:14.411Z,14.93
2023-04-22T20:27:55.453Z,14.89
2023-04-22T20:30:33.566Z,14.83
2023-04-22T20:33:22.097Z,14.77
2023-04-22T20:36:05.887Z,14.72
2023-04-22T20:38:49.144Z,14.68
2023-04-22T20:41:29.776Z,14.62
2023-04-22T20:44:10.944Z,14.55
2023-04-22T20:46:50.906Z,14.50
2023-04-22T20:49:31.124Z,14.46
2023-04-22T20:52:12.660Z,14.40
2023-04-22T20:54:55.541Z,14.34
2023-04-22T20:57:31.710Z,14.29
2023-04-22T21:00:11.785Z,14.25
2023-04-22T21:02:51.468Z,14.21
2023-04-22T21:05:31.688Z,14.18
2023-04-22T21:08:26.503Z,14.13
2023-04-22T21:11:07.070Z,14.09
2023-04-22T21:13:49.097Z,14.03
2023-04-22T21:16:32.857Z,13.96
2023-04-22T21:19:15.834Z,13.91
2023-04-22T21:21:56.781Z,13.84
2023-04-22T21:24:35.250Z,13.74
2023-04-22T21:27:16.569Z,13.67
2023-04-22T21:29:57.336Z,13.60
2023-04-22T21:32:43.757Z,13.55
2023-04-22T21:35:24.694Z,13.50
2023-04-22T21:38:06.100Z,13.46
2023-04-22T21:40:47.795Z,13.43
2023-04-22T21:43:30.007Z,13.38
2023-04-22T21:46:11.400Z,13.32
2023-04-22T21:48:51.841Z,13.27
2023-04-22T21:51:32.642Z,13.21
2023-04-22T21:54:13.195Z,13.14
2023-04-22T21:56:52.918Z,13.09
2023-04-22T21:59:33.222Z,13.06
2023-04-22T22:02:13.340Z,13.02
2023-04-22T22:04:53.125Z,12.97
2023-04-22T22:07:34.719Z,12.92
2023-04-22T22:10:16.645Z,12.86
2023-04-22T22:12:54.071Z,12.78
2023-04-22T22:15:33.803Z,12.74
2023-04-22T22:18:14.168Z,12.69
2023-04-22T22:20:54.219Z,12.65
2023-04-22T22:23:33.992Z,12.62
2023-04-22T22:26:14.521Z,12.60
2023-04-22T22:28:54.269Z,12.58
2023-04-22T22:31:29.447Z,12.54
2023-04-22T22:34:00.359Z,12.50
2023-04-22T22:36:40.514Z,12.46
2023-04-22T22:39:20.745Z,12.44
2023-04-22T22:42:00.146Z,12.42
2023-04-22T22:44:41.062Z,12.38
2023-04-22T22:47:21.252Z,12.32
2023-04-22T22:50:01.286Z,12.25
2023-04-22T22:52:41.538Z,12.22
2023-04-22T22:55:20.635Z,12.18
2023-04-22T22:58:00.240Z,12.12
2023-04-22T23:00:39.950Z,12.07
2023-04-22T23:03:20.052Z,12.02
2023-04-22T23:06:00.862Z,11.99
2023-04-22T23:08:40.824Z,11.96
2023-04-22T23:11:21.240Z,11.92
2023-04-22T23:14:02.883Z,11.85
2023-04-22T23:16:44.225Z,11.81
2023-04-22T23:19:24.586Z,11.76
2023-04-22T23:22:05.452Z,11.71
2023-04-22T23:24:45.307Z,11.66
2023-04-22T23:27:26.433Z,11.62
2023-04-22T23:30:05.952Z,11.58
2023-04-22T23:32:48.965Z,11.55
2023-04-22T23:35:29.665Z,11.50
2023-04-22T23:38:12.151Z,11.45
2023-04-22T23:40:51.062Z,11.42
2023-04-22T23:43:30.385Z,11.40
2023-04-22T23:46:10.722Z,11.38
2023-04-22T23:48:43.857Z,11.34
2023-04-22T23:51:23.408Z,11.27
2023-04-22T23:54:02.660Z,11.21
2023-04-22T23:56:42.985Z,11.14
2023-04-22T23:59:22.504Z,11.09
